This is the latest recevied weather packets stored in our database for station/object DK5GB. If no packets are shown the sender has not sent any weather packets the latest 10 day(s).
| Time | Temp. | Humidity | Pressure | Rain* | Wind** | Luminosity | Snow |
|---|---|---|---|---|---|---|---|
| 1777950316 | 13.33° C | 82% | 1014.1 hPa | 0 mm | - | - | - |
| 1777949716 | 13.33° C | 81% | 1013.9 hPa | 0 mm | - | - | - |
| 1777946716 | 13.33° C | 80% | 1014.6 hPa | 0 mm | - | - | - |
| 1777944316 | 13.33° C | 79% | 1015.3 hPa | 0 mm | - | - | - |
| 1777942516 | 13.33° C | 78% | 1015.5 hPa | 0 mm | - | - | - |
| 1777941916 | 13.33° C | 78% | 1015.6 hPa | 0 mm | - | - | - |
| 1777938916 | 13.89° C | 76% | 1015.7 hPa | 0 mm | - | - | - |
| 1777935316 | 14.44° C | 76% | 1016.2 hPa | 0 mm | - | - | - |
| 1777929316 | 15° C | 76% | 1016.4 hPa | 0 mm | - | - | - |
| 1777928715 | 15° C | 75% | 1016.5 hPa | 0 mm | - | - | - |
| 1777927515 | 15° C | 74% | 1016.7 hPa | 0 mm | - | - | - |
| 1777921516 | 16.67° C | 64% | 1016.5 hPa | 0 mm | - | - | - |
| 1777911917 | 20° C | 54% | 1015.9 hPa | 0 mm | - | - | - |
| 1777911317 | 20° C | 55% | 1015.9 hPa | 0 mm | - | - | - |
| 1777908317 | 21.11° C | 54% | 1015.9 hPa | 0 mm | - | - | - |
| 1777902317 | 22.78° C | 50% | 1016.6 hPa | 0 mm | - | - | - |
| 1777896937 | 20.56° C | 56% | 1017.2 hPa | 0 mm | - | - | - |
| 1777892736 | 21.11° C | 56% | 1017.8 hPa | 0 mm | - | - | - |
| 1777891516 | 20.56° C | 56% | 1017.7 hPa | 0 mm | - | - | - |
| 1777888516 | 21.11° C | 54% | 1018.1 hPa | 0 mm | - | - | - |
| 1777887316 | 20.56° C | 57% | 1018.2 hPa | 0 mm | - | - | - |
| 1777882516 | 19.44° C | 59% | 1018.6 hPa | 0 mm | - | - | - |
| 1777877116 | 15.56° C | 74% | 1018.6 hPa | 0 mm | - | - | - |
| 1777876537 | 15.56° C | 71% | 1018.5 hPa | 0 mm | - | - | - |
| 1777872916 | 11.11° C | 83% | 1018.3 hPa | 0 mm | - | - | - |
* Rain latest hour (hover to see other rain measurements)
** Current wind speed in m/s (hover to see current wind gust speed)